Aviation Digital Data Service (ADDS)

Output produced by METARs form (1346 UTC 16 August 2022)
found at http://aviationweather.gov/metar/data/
 
METAR text: KARR 161252Z 04006KT 9SM CLR 18/17 A3011 RMK AO2 SLP194 T01780167
Conditions at: KARR (CHICAGO/AURORA , IL, US) observed 1252 UTC 16 August 2022
Temperature: 17.8°C (64°F)
Dewpoint: 16.7°C (62°F) [RH = 93%]
Pressure (altimeter): 30.11 inches Hg (1019.7 mb)
[Sea-level pressure: 1019.4 mb]
Winds: from the NE (40 degrees) at 7 MPH (6 knots; 3.1 m/s)
Visibility: 9 miles (14 km)
Ceiling: at least 12,000 feet AGL
Clouds: sky clear below 12,000 feet AGL
Weather: no significant weather observed at this time